Elm Grove, West Virginia
Current Conditions -  °F | °C
As of 10:03 PM on Wednesday 26 Nov 2014 (Local Time) from KHLG Reporting Station
Haze Haze  
Wind Chill:   Ceiling: 200
Heat Index:   Visibility: 1.7mi
Dew Point: -1°   Wind: 0mph
Humidity: 96%   Direction: NA
Pressure: 30.01"   Gusts: NA
Location:  40.0729°N, 80.6524°W
Report Text: KHLG 270303Z AUTO 00000KT 1 3/4SM BR OVC002 00/M01 A3001 RMK AO2 T00001006
Loading
Personal Weather Stations






























Interactive Weather Map New forecast layout! Learn more

10-Day Weather Forecast

Advertisements
Track Severe Weather on mobile